Time;durP1;ratioP1;P1;durP2;ratioP2;P2;SDS_P1;SDS_P2;PMS_P1;PMS_P2;Temp;Humidity;BMP_temperature;BMP_pressure;BME280_temperature;BME280_humidity;BME280_pressure;Samples;Min_cycle;Max_cycle;Signal;HPM_P1;HPM_P2
2023/07/25 00:01:45;;;;;;;9.00;6.70;;;;;;;;;;108274;1271;41127;-37
2023/07/25 00:04:20;;;;;;;9.20;6.50;;;;;;;;;;108312;1273;40112;-37
2023/07/25 00:06:55;;;;;;;7.80;5.90;;;;;;;;;;108328;1273;39941;-37
2023/07/25 00:09:30;;;;;;;9.00;6.70;;;;;;;;;;108187;1271;175906;-37
2023/07/25 00:12:04;;;;;;;9.40;6.70;;;;;;;;;;108265;1261;40931;-37
2023/07/25 00:14:40;;;;;;;9.10;6.60;;;;;;;;;;108318;1272;38810;-37
2023/07/25 00:17:14;;;;;;;8.90;6.30;;;;;;;;;;108280;1268;40391;-37
2023/07/25 00:19:48;;;;;;;8.40;6.30;;;;;;;;;;108272;1272;42068;-37
2023/07/25 00:22:22;;;;;;;8.80;6.70;;;;;;;;;;108250;1263;42508;-38
2023/07/25 00:24:56;;;;;;;8.80;6.60;;;;;;;;;;108303;1262;38767;-38
2023/07/25 00:27:31;;;;;;;9.60;7.00;;;;;;;;;;108320;1272;40167;-38
2023/07/25 00:30:11;;;;;;;9.60;6.90;;;;;;;;;;108262;1262;42096;-38
2023/07/25 00:32:45;;;;;;;9.20;6.70;;;;;;;;;;108244;1261;41292;-37
2023/07/25 00:35:23;;;;;;;8.80;6.50;;;;;;;;;;108323;1260;38947;-37
2023/07/25 00:37:57;;;;;;;9.20;6.80;;;;;;;;;;108280;1268;40166;-37
2023/07/25 00:40:31;;;;;;;9.90;6.80;;;;;;;;;;108304;1268;41996;-38
2023/07/25 00:43:05;;;;;;;8.70;6.50;;;;;;;;;;108294;1262;42365;-38
2023/07/25 00:45:39;;;;;;;9.00;7.00;;;;;;;;;;108312;1261;38830;-38
2023/07/25 00:48:13;;;;;;;9.50;6.70;;;;;;;;;;108364;1270;40359;-38
2023/07/25 00:50:51;;;;;;;9.40;7.10;;;;;;;;;;108321;1269;41853;-37
2023/07/25 00:53:29;;;;;;;9.50;6.70;;;;;;;;;;108261;1260;47477;-37
2023/07/25 00:56:03;;;;;;;9.60;7.00;;;;;;;;;;108282;1272;38731;-37
2023/07/25 00:58:38;;;;;;;9.00;6.60;;;;;;;;;;108268;1269;39893;-37
2023/07/25 01:01:12;;;;;;;8.70;6.80;;;;;;;;;;108298;1271;42107;-37
2023/07/25 01:03:47;;;;;;;8.80;6.80;;;;;;;;;;108288;1256;46862;-37
2023/07/25 01:06:22;;;;;;;8.90;6.60;;;;;;;;;;108337;1262;38802;-37
2023/07/25 01:08:58;;;;;;;9.40;6.70;;;;;;;;;;108335;1269;41162;-37
2023/07/25 01:11:32;;;;;;;9.40;6.80;;;;;;;;;;108311;1272;42255;-37
2023/07/25 01:14:07;;;;;;;8.70;6.80;;;;;;;;;;108238;1260;46995;-37
2023/07/25 01:16:42;;;;;;;9.40;7.10;;;;;;;;;;108331;1270;38956;-37
2023/07/25 01:19:20;;;;;;;9.20;7.30;;;;;;;;;;108315;1268;41377;-37
2023/07/25 01:21:56;;;;;;;9.30;7.20;;;;;;;;;;108271;1272;43298;-37
2023/07/25 01:24:30;;;;;;;10.10;6.90;;;;;;;;;;108293;1264;42320;-37
2023/07/25 01:27:08;;;;;;;9.10;7.00;;;;;;;;;;107651;1260;893363;-37
2023/07/25 01:29:43;;;;;;;9.90;7.50;;;;;;;;;;108292;1269;40556;-37
2023/07/25 01:32:17;;;;;;;10.00;7.50;;;;;;;;;;108260;1273;41956;-37
2023/07/25 01:34:51;;;;;;;8.60;6.90;;;;;;;;;;108275;1270;48527;-37
2023/07/25 01:37:25;;;;;;;10.30;7.40;;;;;;;;;;108286;1264;38668;-37
2023/07/25 01:39:59;;;;;;;9.10;7.20;;;;;;;;;;108283;1273;40200;-37
2023/07/25 01:42:33;;;;;;;9.70;7.20;;;;;;;;;;108250;1272;41847;-37
2023/07/25 01:45:10;;;;;;;11.20;7.60;;;;;;;;;;108313;1273;47537;-37
2023/07/25 01:47:44;;;;;;;8.70;7.00;;;;;;;;;;108308;1264;39060;-37
2023/07/25 01:50:19;;;;;;;10.80;7.60;;;;;;;;;;108340;1257;39841;-37
2023/07/25 01:52:53;;;;;;;9.10;7.30;;;;;;;;;;108271;1269;42496;-37
2023/07/25 01:55:27;;;;;;;9.40;7.60;;;;;;;;;;108255;1261;48801;-37
2023/07/25 01:58:01;;;;;;;9.70;7.40;;;;;;;;;;108253;1269;38946;-37
2023/07/25 02:00:36;;;;;;;9.60;7.20;;;;;;;;;;108280;1261;40202;-37
2023/07/25 02:03:11;;;;;;;9.00;7.40;;;;;;;;;;108270;1257;42240;-37
2023/07/25 02:05:46;;;;;;;9.60;7.40;;;;;;;;;;108193;1269;200767;-37
2023/07/25 02:08:20;;;;;;;9.60;7.60;;;;;;;;;;108302;1263;39249;-37
2023/07/25 02:10:54;;;;;;;9.30;7.30;;;;;;;;;;108311;1263;40299;-37
2023/07/25 02:13:28;;;;;;;10.40;7.60;;;;;;;;;;108279;1258;43197;-37
2023/07/25 02:16:06;;;;;;;9.50;7.20;;;;;;;;;;108287;1272;48659;-37
2023/07/25 02:18:42;;;;;;;10.00;7.30;;;;;;;;;;108261;1271;40127;-37
2023/07/25 02:21:16;;;;;;;9.60;7.90;;;;;;;;;;108297;1269;40147;-37
2023/07/25 02:23:51;;;;;;;9.10;7.40;;;;;;;;;;107595;1260;892938;-37
2023/07/25 02:26:26;;;;;;;9.60;7.60;;;;;;;;;;108111;1274;42510;-37
2023/07/25 02:29:00;;;;;;;9.20;7.40;;;;;;;;;;108286;1273;38881;-37
2023/07/25 02:31:37;;;;;;;10.20;7.50;;;;;;;;;;108305;1257;41708;-37
2023/07/25 02:34:10;;;;;;;10.30;7.70;;;;;;;;;;108146;1258;41932;-37
2023/07/25 02:36:45;;;;;;;9.40;7.70;;;;;;;;;;108249;1266;42369;-37
2023/07/25 02:39:19;;;;;;;10.30;7.30;;;;;;;;;;108280;1267;40007;-37
2023/07/25 02:41:53;;;;;;;9.60;7.70;;;;;;;;;;108295;1269;40186;-37
2023/07/25 02:44:31;;;;;;;9.50;7.40;;;;;;;;;;108239;1261;43248;-37
2023/07/25 02:47:08;;;;;;;9.60;7.60;;;;;;;;;;108326;1269;41280;-37
2023/07/25 02:49:42;;;;;;;9.40;7.50;;;;;;;;;;108301;1266;38897;-37
2023/07/25 02:52:18;;;;;;;9.40;7.60;;;;;;;;;;108310;1263;40151;-37
2023/07/25 02:54:52;;;;;;;10.20;7.60;;;;;;;;;;108368;1268;42235;-37
2023/07/25 02:57:27;;;;;;;10.10;7.80;;;;;;;;;;108267;1256;41283;-37
2023/07/25 03:00:00;;;;;;;10.30;7.90;;;;;;;;;;108335;1272;38854;-37
2023/07/25 03:02:37;;;;;;;9.50;7.60;;;;;;;;;;108310;1272;40147;-37
2023/07/25 03:05:15;;;;;;;10.50;7.70;;;;;;;;;;108282;1256;42248;-37
2023/07/25 03:07:49;;;;;;;9.50;7.30;;;;;;;;;;108261;1273;43502;-37
2023/07/25 03:10:23;;;;;;;10.00;7.40;;;;;;;;;;108311;1263;38834;-37
2023/07/25 03:12:57;;;;;;;9.00;7.50;;;;;;;;;;108299;1273;41241;-37
2023/07/25 03:15:31;;;;;;;9.80;7.80;;;;;;;;;;108265;1262;44609;-37
2023/07/25 03:18:05;;;;;;;10.10;7.60;;;;;;;;;;108307;1269;40975;-37
2023/07/25 03:20:40;;;;;;;11.00;7.90;;;;;;;;;;108134;1262;175456;-37
2023/07/25 03:23:14;;;;;;;9.10;7.40;;;;;;;;;;108238;1272;41407;-37
2023/07/25 03:25:48;;;;;;;9.80;7.30;;;;;;;;;;108204;1260;43314;-37
2023/07/25 03:28:23;;;;;;;9.60;7.60;;;;;;;;;;108322;1263;42402;-37
2023/07/25 03:30:59;;;;;;;10.20;7.80;;;;;;;;;;108315;1269;38800;-37
2023/07/25 03:33:33;;;;;;;9.30;7.30;;;;;;;;;;108275;1270;40180;-37
2023/07/25 03:36:09;;;;;;;10.80;7.90;;;;;;;;;;108238;1261;42265;-37
2023/07/25 03:38:45;;;;;;;9.20;7.60;;;;;;;;;;108314;1268;41547;-37
2023/07/25 03:41:19;;;;;;;10.20;8.00;;;;;;;;;;108296;1273;38714;-37
2023/07/25 03:43:53;;;;;;;9.90;7.90;;;;;;;;;;108272;1262;40136;-37
2023/07/25 03:46:27;;;;;;;9.60;7.70;;;;;;;;;;108245;1262;42446;-37
2023/07/25 03:49:02;;;;;;;9.90;7.70;;;;;;;;;;108311;1257;41369;-37
2023/07/25 03:51:37;;;;;;;9.20;7.10;;;;;;;;;;108311;1263;38974;-37
2023/07/25 03:54:12;;;;;;;9.70;8.10;;;;;;;;;;108316;1270;41480;-37
2023/07/25 03:56:46;;;;;;;9.80;7.60;;;;;;;;;;108205;1269;42402;-37
2023/07/25 03:59:20;;;;;;;9.20;7.50;;;;;;;;;;108278;1273;42292;-37
2023/07/25 04:01:54;;;;;;;9.70;7.60;;;;;;;;;;108257;1270;38818;-37
2023/07/25 04:04:29;;;;;;;10.10;7.80;;;;;;;;;;108322;1270;40302;-37
2023/07/25 04:07:03;;;;;;;10.40;8.10;;;;;;;;;;108250;1257;43525;-37
2023/07/25 04:09:37;;;;;;;10.50;7.60;;;;;;;;;;108316;1269;41331;-37
2023/07/25 04:12:12;;;;;;;9.70;7.90;;;;;;;;;;108288;1271;38634;-37
2023/07/25 04:15:08;;;;;;;9.40;6.90;;;;;;;;;;108316;1269;40217;-37
2023/07/25 04:17:42;;;;;;;9.60;7.30;;;;;;;;;;108226;1261;43489;-37
2023/07/25 04:20:20;;;;;;;8.70;6.90;;;;;;;;;;108258;1261;41319;-37
2023/07/25 04:22:54;;;;;;;9.80;7.40;;;;;;;;;;108248;1257;39077;-37
2023/07/25 04:25:32;;;;;;;8.70;6.80;;;;;;;;;;108304;1272;40238;-37
2023/07/25 04:28:07;;;;;;;9.90;7.40;;;;;;;;;;108278;1260;42269;-37
2023/07/25 04:30:43;;;;;;;8.80;6.80;;;;;;;;;;108314;1269;41210;-37
2023/07/25 04:33:17;;;;;;;9.10;7.40;;;;;;;;;;108314;1270;38869;-37
2023/07/25 04:35:51;;;;;;;9.00;7.10;;;;;;;;;;108326;1270;41529;-37
2023/07/25 04:38:26;;;;;;;9.00;6.70;;;;;;;;;;108244;1260;42252;-37
2023/07/25 04:41:00;;;;;;;8.40;6.70;;;;;;;;;;108280;1272;42419;-37
2023/07/25 04:43:35;;;;;;;8.50;6.40;;;;;;;;;;108264;1257;38969;-37
2023/07/25 04:46:10;;;;;;;8.60;6.30;;;;;;;;;;108141;1267;40404;-37
2023/07/25 04:48:44;;;;;;;8.10;6.20;;;;;;;;;;108301;1258;41934;-37
2023/07/25 04:51:20;;;;;;;9.10;6.20;;;;;;;;;;108192;1262;175176;-37
2023/07/25 04:53:54;;;;;;;7.60;6.30;;;;;;;;;;108323;1273;40240;-37
2023/07/25 04:56:31;;;;;;;8.50;6.10;;;;;;;;;;108181;1260;175532;-37
2023/07/25 04:59:05;;;;;;;8.40;6.30;;;;;;;;;;108231;1259;47891;-37
2023/07/25 05:01:40;;;;;;;8.50;6.20;;;;;;;;;;108243;1271;41144;-37
2023/07/25 05:04:14;;;;;;;8.10;6.00;;;;;;;;;;108305;1270;38824;-37
2023/07/25 05:06:48;;;;;;;8.10;5.80;;;;;;;;;;108271;1260;40256;-37
2023/07/25 05:09:22;;;;;;;7.70;5.90;;;;;;;;;;108121;1260;175498;-37
2023/07/25 05:11:57;;;;;;;9.00;5.80;;;;;;;;;;108334;1257;42419;-37
2023/07/25 05:14:31;;;;;;;7.90;5.90;;;;;;;;;;108329;1271;38805;-37
2023/07/25 05:17:05;;;;;;;7.60;5.40;;;;;;;;;;108184;1273;175528;-37
2023/07/25 05:19:40;;;;;;;7.80;5.70;;;;;;;;;;108172;1271;48709;-37
2023/07/25 05:22:14;;;;;;;7.30;5.30;;;;;;;;;;108259;1257;42693;-37
2023/07/25 05:24:48;;;;;;;7.70;5.60;;;;;;;;;;108244;1264;40075;-37
2023/07/25 05:27:22;;;;;;;7.50;5.10;;;;;;;;;;108233;1269;40296;-37
2023/07/25 05:29:57;;;;;;;8.80;5.00;;;;;;;;;;108150;1260;175460;-37
2023/07/25 05:32:32;;;;;;;6.80;5.10;;;;;;;;;;108296;1258;42630;-37
2023/07/25 05:35:11;;;;;;;6.70;4.70;;;;;;;;;;108326;1270;38861;-37
2023/07/25 05:37:45;;;;;;;6.90;4.60;;;;;;;;;;108302;1263;40549;-37
2023/07/25 05:40:19;;;;;;;7.00;4.80;;;;;;;;;;108205;1261;42368;-37
2023/07/25 05:42:53;;;;;;;6.60;4.40;;;;;;;;;;108242;1257;41496;-37
2023/07/25 05:45:27;;;;;;;6.90;4.40;;;;;;;;;;108226;1260;38645;-37
2023/07/25 05:48:01;;;;;;;6.10;4.00;;;;;;;;;;108240;1269;40309;-37
2023/07/25 05:50:34;;;;;;;5.80;3.60;;;;;;;;;;108235;1260;49306;-37
2023/07/25 05:53:08;;;;;;;6.70;4.10;;;;;;;;;;108281;1270;41469;-38
2023/07/25 05:55:44;;;;;;;6.30;3.70;;;;;;;;;;108267;1260;39168;-37
2023/07/25 05:58:19;;;;;;;5.80;3.80;;;;;;;;;;108240;1270;40235;-37
2023/07/25 06:00:53;;;;;;;6.60;4.10;;;;;;;;;;108263;1265;48877;-37
2023/07/25 06:03:27;;;;;;;6.60;4.20;;;;;;;;;;108217;1257;41252;-37
2023/07/25 06:06:00;;;;;;;6.80;4.00;;;;;;;;;;108111;1270;38928;-37
2023/07/25 06:08:34;;;;;;;6.00;3.70;;;;;;;;;;108302;1260;40613;-36
2023/07/25 06:11:07;;;;;;;6.70;4.30;;;;;;;;;;108231;1263;50616;-37
2023/07/25 06:13:41;;;;;;;7.20;4.10;;;;;;;;;;108281;1269;41274;-39
2023/07/25 06:16:14;;;;;;;6.70;4.00;;;;;;;;;;108234;1270;38931;-39
2023/07/25 06:18:48;;;;;;;6.50;4.10;;;;;;;;;;108210;1257;40207;-38
2023/07/25 06:21:21;;;;;;;6.50;3.80;;;;;;;;;;108272;1264;48850;-37
2023/07/25 06:23:55;;;;;;;6.90;3.80;;;;;;;;;;108216;1269;42918;-35
2023/07/25 06:26:28;;;;;;;6.90;3.70;;;;;;;;;;108277;1261;40134;-35
2023/07/25 06:29:02;;;;;;;6.40;3.70;;;;;;;;;;108149;1269;175005;-35
2023/07/25 06:31:36;;;;;;;6.60;3.60;;;;;;;;;;108290;1267;50402;-38
2023/07/25 06:34:10;;;;;;;6.90;3.80;;;;;;;;;;108314;1272;41018;-35
2023/07/25 06:36:43;;;;;;;5.90;3.70;;;;;;;;;;108149;1272;175477;-35
2023/07/25 06:39:18;;;;;;;7.00;3.70;;;;;;;;;;108275;1261;40204;-36
2023/07/25 06:41:51;;;;;;;5.80;3.40;;;;;;;;;;108269;1264;47756;-36
2023/07/25 06:44:25;;;;;;;6.40;3.50;;;;;;;;;;108307;1260;41202;-35
2023/07/25 06:46:59;;;;;;;5.40;3.00;;;;;;;;;;108298;1257;39988;-34
2023/07/25 06:49:33;;;;;;;5.50;3.10;;;;;;;;;;108251;1269;41610;-35
2023/07/25 06:52:08;;;;;;;5.50;3.20;;;;;;;;;;108199;1272;49777;-37
2023/07/25 06:54:43;;;;;;;5.40;2.80;;;;;;;;;;108301;1257;42511;-42
2023/07/25 06:57:21;;;;;;;5.20;3.00;;;;;;;;;;108285;1270;39006;-38
2023/07/25 06:59:55;;;;;;;5.40;2.90;;;;;;;;;;108212;1258;40169;-36
2023/07/25 07:02:30;;;;;;;5.10;2.90;;;;;;;;;;108366;1267;42439;-38
2023/07/25 07:05:05;;;;;;;5.10;2.60;;;;;;;;;;108319;1272;41015;-37
2023/07/25 07:07:59;;;;;;;4.90;2.80;;;;;;;;;;108107;1260;175487;-37
2023/07/25 07:10:33;;;;;;;5.90;2.80;;;;;;;;;;108249;1257;40785;-37
2023/07/25 07:13:09;;;;;;;4.60;2.40;;;;;;;;;;108293;1272;43453;-36
2023/07/25 07:15:47;;;;;;;4.50;2.20;;;;;;;;;;108248;1260;41313;-37
2023/07/25 07:18:20;;;;;;;4.90;2.20;;;;;;;;;;108313;1267;40123;-35
2023/07/25 07:20:57;;;;;;;4.40;2.10;;;;;;;;;;108240;1255;40259;-35
2023/07/25 07:23:30;;;;;;;4.80;2.20;;;;;;;;;;108109;1270;42590;-35
2023/07/25 07:26:06;;;;;;;4.60;2.40;;;;;;;;;;108161;1270;42253;-36
2023/07/25 07:28:41;;;;;;;4.30;2.10;;;;;;;;;;108303;1257;38869;-36
2023/07/25 07:31:21;;;;;;;4.90;2.10;;;;;;;;;;108265;1260;40232;-35
2023/07/25 07:34:11;;;;;;;4.10;2.10;;;;;;;;;;108254;1260;41856;-36
2023/07/25 07:36:45;;;;;;;4.40;2.00;;;;;;;;;;108306;1264;41139;-36
2023/07/25 07:39:19;;;;;;;4.80;2.30;;;;;;;;;;108269;1257;38977;-35
2023/07/25 07:41:53;;;;;;;4.30;2.10;;;;;;;;;;108188;1260;40395;-37
2023/07/25 07:44:28;;;;;;;4.10;2.00;;;;;;;;;;108265;1258;41912;-38
2023/07/25 07:47:06;;;;;;;4.20;2.10;;;;;;;;;;108251;1260;41399;-38
2023/07/25 07:49:40;;;;;;;5.80;2.30;;;;;;;;;;108238;1257;38783;-40
2023/07/25 07:52:14;;;;;;;5.30;2.20;;;;;;;;;;108165;1257;175457;-40
2023/07/25 07:55:09;;;;;;;4.90;2.00;;;;;;;;;;108237;1258;42211;-36
2023/07/25 07:57:45;;;;;;;5.20;2.40;;;;;;;;;;108364;1260;43459;-34
2023/07/25 08:00:21;;;;;;;4.20;2.10;;;;;;;;;;108266;1261;38831;-34
2023/07/25 08:02:55;;;;;;;5.70;2.00;;;;;;;;;;108286;1260;40435;-33
2023/07/25 08:05:32;;;;;;;4.50;1.70;;;;;;;;;;108292;1260;43647;-35
2023/07/25 08:08:09;;;;;;;4.00;1.80;;;;;;;;;;108216;1273;43672;-37
2023/07/25 08:10:43;;;;;;;3.90;1.70;;;;;;;;;;108286;1257;40066;-38
2023/07/25 08:13:20;;;;;;;4.00;1.80;;;;;;;;;;108206;1264;40032;-36
2023/07/25 08:15:56;;;;;;;5.80;2.30;;;;;;;;;;108362;1260;43631;-36
2023/07/25 08:18:30;;;;;;;4.40;2.10;;;;;;;;;;108206;1264;41015;-35
2023/07/25 08:21:05;;;;;;;5.00;2.00;;;;;;;;;;108261;1264;38732;-38
2023/07/25 08:23:39;;;;;;;4.00;1.70;;;;;;;;;;108261;1260;40288;-39
2023/07/25 08:26:13;;;;;;;4.50;1.80;;;;;;;;;;108319;1257;43279;-42
2023/07/25 08:28:48;;;;;;;4.10;1.50;;;;;;;;;;108270;1272;42380;-35
2023/07/25 08:31:22;;;;;;;4.30;1.50;;;;;;;;;;108298;1260;38812;-36
2023/07/25 08:33:56;;;;;;;3.90;1.70;;;;;;;;;;108165;1260;46605;-36
2023/07/25 08:36:33;;;;;;;4.10;1.70;;;;;;;;;;108303;1255;42095;-35
2023/07/25 08:39:07;;;;;;;4.80;1.90;;;;;;;;;;108286;1264;41386;-36
2023/07/25 08:41:46;;;;;;;4.50;2.00;;;;;;;;;;108230;1260;38822;-37
2023/07/25 08:44:22;;;;;;;3.90;1.70;;;;;;;;;;108264;1261;47018;-37
2023/07/25 08:46:57;;;;;;;4.20;1.60;;;;;;;;;;108222;1257;43493;-37
2023/07/25 08:49:37;;;;;;;4.50;1.80;;;;;;;;;;108230;1256;41323;-34
2023/07/25 08:52:14;;;;;;;3.90;1.80;;;;;;;;;;108403;1264;40096;-34
2023/07/25 08:54:51;;;;;;;4.20;1.70;;;;;;;;;;108168;1257;46280;-34
2023/07/25 08:57:26;;;;;;;4.20;1.90;;;;;;;;;;108140;1272;42418;-34
2023/07/25 09:00:01;;;;;;;3.90;1.70;;;;;;;;;;108157;1260;41292;-34
2023/07/25 09:02:35;;;;;;;4.60;1.60;;;;;;;;;;108136;1272;38859;-34
2023/07/25 09:05:12;;;;;;;3.50;1.60;;;;;;;;;;108322;1272;40690;-34
2023/07/25 09:07:46;;;;;;;3.80;1.60;;;;;;;;;;108344;1272;42661;-34
2023/07/25 09:10:23;;;;;;;3.50;1.60;;;;;;;;;;108352;1257;41314;-34
2023/07/25 09:12:58;;;;;;;3.70;1.60;;;;;;;;;;108268;1257;40027;-34
2023/07/25 09:15:32;;;;;;;3.70;1.60;;;;;;;;;;107540;1261;890687;-34
2023/07/25 09:18:06;;;;;;;4.10;1.70;;;;;;;;;;108144;1269;42096;-34
2023/07/25 09:20:42;;;;;;;3.30;1.40;;;;;;;;;;108145;1273;42536;-35
2023/07/25 09:23:23;;;;;;;3.90;1.50;;;;;;;;;;108142;1261;38747;-34
2023/07/25 09:26:10;;;;;;;3.50;1.50;;;;;;;;;;108350;1257;40150;-34
2023/07/25 09:28:52;;;;;;;3.80;1.40;;;;;;;;;;108335;1260;42114;-35
2023/07/25 09:31:31;;;;;;;3.20;1.50;;;;;;;;;;108283;1264;41168;-33
2023/07/25 09:34:06;;;;;;;3.40;1.30;;;;;;;;;;108227;1262;41183;-34
2023/07/25 09:36:40;;;;;;;3.00;1.40;;;;;;;;;;108180;1268;41252;-34
2023/07/25 09:39:14;;;;;;;2.80;1.20;;;;;;;;;;108131;1270;42449;-34
2023/07/25 09:41:52;;;;;;;3.10;1.30;;;;;;;;;;108213;1257;41301;-33
2023/07/25 09:44:27;;;;;;;3.70;1.30;;;;;;;;;;108164;1257;39240;-33
2023/07/25 09:47:01;;;;;;;3.10;1.40;;;;;;;;;;108309;1258;40951;-34
2023/07/25 09:49:38;;;;;;;3.20;1.40;;;;;;;;;;108320;1261;42149;-33
2023/07/25 09:52:13;;;;;;;3.10;1.40;;;;;;;;;;108322;1269;41357;-33
2023/07/25 09:54:47;;;;;;;3.00;1.30;;;;;;;;;;108240;1262;38995;-33
2023/07/25 09:57:23;;;;;;;2.90;1.30;;;;;;;;;;108147;1257;41500;-33
2023/07/25 09:59:58;;;;;;;3.30;1.40;;;;;;;;;;108182;1258;42471;-33
2023/07/25 10:02:35;;;;;;;3.00;1.30;;;;;;;;;;108186;1258;41197;-33
2023/07/25 10:05:11;;;;;;;2.40;1.10;;;;;;;;;;108212;1261;39043;-34
2023/07/25 10:07:45;;;;;;;3.40;1.30;;;;;;;;;;108355;1268;40653;-34
2023/07/25 10:10:20;;;;;;;2.90;1.30;;;;;;;;;;108323;1256;41969;-34
2023/07/25 10:12:54;;;;;;;3.00;1.20;;;;;;;;;;108290;1267;41171;-34
2023/07/25 10:15:29;;;;;;;4.00;1.40;;;;;;;;;;108212;1257;39899;-33
2023/07/25 10:18:23;;;;;;;3.20;1.30;;;;;;;;;;108003;1268;40244;-33
2023/07/25 10:20:57;;;;;;;3.80;1.70;;;;;;;;;;108132;1257;42237;-33
2023/07/25 10:23:35;;;;;;;3.40;1.30;;;;;;;;;;108151;1270;41240;-33
2023/07/25 10:26:18;;;;;;;3.30;1.40;;;;;;;;;;108275;1261;39052;-34
2023/07/25 10:28:52;;;;;;;3.00;1.40;;;;;;;;;;108338;1261;41502;-34
2023/07/25 10:31:34;;;;;;;3.00;1.20;;;;;;;;;;108286;1257;42059;-34
2023/07/25 10:34:17;;;;;;;3.60;1.30;;;;;;;;;;108199;1261;194315;-33
2023/07/25 10:37:26;;;;;;;3.50;1.20;;;;;;;;;;108294;1262;44620;-33
2023/07/25 10:40:15;;;;;;;2.90;1.30;;;;;;;;;;108246;1268;40627;-34
2023/07/25 10:42:59;;;;;;;3.40;1.40;;;;;;;;;;108147;1257;42268;-33
2023/07/25 10:45:55;;;;;;;3.20;1.30;;;;;;;;;;108162;1257;42836;-35
2023/07/25 10:48:46;;;;;;;3.40;1.30;;;;;;;;;;108285;1269;38839;-36
2023/07/25 10:51:23;;;;;;;3.40;1.20;;;;;;;;;;108278;1260;40208;-36
2023/07/25 10:54:14;;;;;;;3.60;1.30;;;;;;;;;;108347;1260;42291;-35
2023/07/25 10:57:17;;;;;;;2.90;1.30;;;;;;;;;;108294;1258;42570;-37
2023/07/25 11:00:04;;;;;;;3.40;1.10;;;;;;;;;;108244;1261;40094;-36
2023/07/25 11:02:42;;;;;;;3.70;1.40;;;;;;;;;;108280;1272;43107;-36
2023/07/25 11:05:34;;;;;;;3.50;1.30;;;;;;;;;;108358;1260;43374;-35
2023/07/25 11:08:07;;;;;;;;;;;;;;;;;;108317;1260;41206;-35
2023/07/25 11:10:41;;;;;;;3.70;1.30;;;;;;;;;;108276;1270;39031;-36
2023/07/25 11:13:15;;;;;;;3.10;1.50;;;;;;;;;;108280;1257;40385;-37
2023/07/25 11:15:50;;;;;;;4.50;1.10;;;;;;;;;;108240;1256;43325;-35
2023/07/25 11:18:24;;;;;;;2.70;1.10;;;;;;;;;;108257;1272;43650;-35
2023/07/25 11:21:04;;;;;;;2.80;1.10;;;;;;;;;;108158;1261;175365;-34
2023/07/25 11:23:37;;;;;;;3.70;1.10;;;;;;;;;;108128;1261;41459;-33
2023/07/25 11:26:13;;;;;;;4.10;1.70;;;;;;;;;;108147;1272;42329;-33
2023/07/25 11:28:47;;;;;;;4.80;1.80;;;;;;;;;;108274;1257;41342;-33
2023/07/25 11:31:24;;;;;;;3.60;1.50;;;;;;;;;;108304;1256;38818;-35
2023/07/25 11:33:58;;;;;;;3.80;1.60;;;;;;;;;;108308;1260;41372;-36
2023/07/25 11:36:31;;;;;;;3.80;1.50;;;;;;;;;;108225;1257;42379;-34
2023/07/25 11:39:06;;;;;;;4.00;1.50;;;;;;;;;;108430;1260;44232;-34
2023/07/25 11:41:40;;;;;;;4.40;1.70;;;;;;;;;;108233;1270;40473;-34
2023/07/25 11:44:16;;;;;;;4.00;1.60;;;;;;;;;;108295;1258;40931;-34
2023/07/25 11:46:55;;;;;;;4.60;1.60;;;;;;;;;;108253;1259;42543;-32
2023/07/25 11:49:29;;;;;;;4.10;1.60;;;;;;;;;;108014;1267;119448;-33
2023/07/25 11:52:23;;;;;;;3.80;1.50;;;;;;;;;;108259;1256;40469;-34
2023/07/25 11:54:58;;;;;;;3.10;1.40;;;;;;;;;;108336;1259;40835;-35
2023/07/25 11:57:32;;;;;;;3.70;1.60;;;;;;;;;;108094;1270;42399;-35
2023/07/25 12:00:11;;;;;;;3.40;1.50;;;;;;;;;;108294;1256;42783;-34
2023/07/25 12:02:47;;;;;;;3.70;1.50;;;;;;;;;;108145;1270;39051;-33
2023/07/25 12:05:32;;;;;;;3.20;1.40;;;;;;;;;;108217;1257;39983;-34
2023/07/25 12:08:06;;;;;;;4.20;1.60;;;;;;;;;;108324;1259;43681;-34
2023/07/25 12:10:42;;;;;;;3.90;1.50;;;;;;;;;;108333;1260;41191;-34
2023/07/25 12:13:16;;;;;;;3.10;1.30;;;;;;;;;;108171;1260;38834;-33
2023/07/25 12:15:51;;;;;;;3.10;1.30;;;;;;;;;;108336;1263;40422;-33
2023/07/25 12:18:33;;;;;;;3.80;1.50;;;;;;;;;;108257;1261;43964;-33
2023/07/25 12:21:08;;;;;;;3.20;1.40;;;;;;;;;;108252;1264;41453;-34
2023/07/25 12:23:43;;;;;;;3.60;1.50;;;;;;;;;;108302;1259;39231;-34
2023/07/25 12:26:20;;;;;;;3.50;1.40;;;;;;;;;;108296;1271;41791;-34
2023/07/25 12:28:55;;;;;;;3.00;1.20;;;;;;;;;;108208;1257;43728;-34
2023/07/25 12:31:30;;;;;;;3.10;1.30;;;;;;;;;;108164;1261;42023;-33
2023/07/25 12:34:04;;;;;;;3.10;1.40;;;;;;;;;;108284;1267;39990;-33
2023/07/25 12:36:38;;;;;;;3.90;1.40;;;;;;;;;;108316;1268;41177;-33
2023/07/25 12:39:12;;;;;;;2.70;1.20;;;;;;;;;;108235;1262;42665;-34
2023/07/25 12:41:46;;;;;;;2.90;1.30;;;;;;;;;;108264;1260;42618;-34
2023/07/25 12:44:20;;;;;;;3.00;1.40;;;;;;;;;;108260;1260;39552;-34
2023/07/25 12:46:54;;;;;;;2.90;1.30;;;;;;;;;;108263;1264;40143;-34
2023/07/25 12:49:28;;;;;;;3.30;1.30;;;;;;;;;;108082;1258;49458;-34
2023/07/25 12:52:02;;;;;;;2.70;1.30;;;;;;;;;;108319;1269;41571;-34
2023/07/25 12:54:37;;;;;;;3.70;1.40;;;;;;;;;;108278;1263;39317;-34
2023/07/25 12:57:11;;;;;;;3.30;1.40;;;;;;;;;;108215;1256;40590;-34
2023/07/25 12:59:44;;;;;;;3.60;1.40;;;;;;;;;;108279;1259;48818;-33
2023/07/25 13:02:18;;;;;;;3.30;1.20;;;;;;;;;;108284;1270;41743;-32
2023/07/25 13:04:52;;;;;;;3.50;1.60;;;;;;;;;;108229;1264;39078;-32
2023/07/25 13:07:25;;;;;;;4.20;1.40;;;;;;;;;;108105;1261;40520;-32
2023/07/25 13:09:59;;;;;;;3.30;1.60;;;;;;;;;;108137;1257;175359;-32
2023/07/25 13:12:34;;;;;;;3.80;1.70;;;;;;;;;;108295;1260;41734;-32
2023/07/25 13:15:10;;;;;;;3.30;1.70;;;;;;;;;;108282;1257;40294;-30
2023/07/25 13:17:44;;;;;;;3.50;2.00;;;;;;;;;;108270;1258;40615;-30
2023/07/25 13:20:20;;;;;;;3.20;1.50;;;;;;;;;;108197;1260;50569;-31
2023/07/25 13:22:56;;;;;;;3.00;1.50;;;;;;;;;;108214;1267;42814;-31
2023/07/25 13:25:30;;;;;;;3.70;1.60;;;;;;;;;;108066;1268;39207;-32
2023/07/25 13:28:04;;;;;;;3.20;1.60;;;;;;;;;;108162;1265;40487;-32
2023/07/25 13:30:38;;;;;;;3.70;1.70;;;;;;;;;;108367;1262;50275;-32
2023/07/25 13:33:12;;;;;;;3.80;1.60;;;;;;;;;;108251;1257;41570;-32
2023/07/25 13:35:46;;;;;;;3.30;1.60;;;;;;;;;;108198;1268;38847;-32
2023/07/25 13:38:20;;;;;;;3.30;1.50;;;;;;;;;;108261;1264;40150;-32
2023/07/25 13:40:54;;;;;;;3.60;1.70;;;;;;;;;;108027;1268;49931;-32
2023/07/25 13:43:28;;;;;;;3.50;1.50;;;;;;;;;;108038;1270;41566;-32
2023/07/25 13:46:03;;;;;;;3.30;1.70;;;;;;;;;;108083;1259;39251;-34
2023/07/25 13:48:38;;;;;;;3.30;1.70;;;;;;;;;;108070;1270;40984;-34
2023/07/25 13:51:11;;;;;;;3.30;1.50;;;;;;;;;;108215;1270;48186;-34
2023/07/25 13:53:45;;;;;;;3.20;1.60;;;;;;;;;;108204;1262;41387;-33
2023/07/25 13:56:19;;;;;;;4.00;1.80;;;;;;;;;;108222;1258;39190;-34
2023/07/25 13:58:53;;;;;;;4.70;1.50;;;;;;;;;;108241;1256;40697;-33
2023/07/25 14:01:27;;;;;;;4.10;1.60;;;;;;;;;;108154;1262;48991;-33
2023/07/25 14:04:01;;;;;;;3.30;1.50;;;;;;;;;;108279;1261;41158;-32
2023/07/25 14:06:35;;;;;;;3.80;1.70;;;;;;;;;;108232;1269;38987;-37
2023/07/25 14:09:09;;;;;;;3.60;1.80;;;;;;;;;;108263;1269;41502;-35
2023/07/25 14:11:43;;;;;;;3.20;1.60;;;;;;;;;;108279;1256;48587;-34
2023/07/25 14:14:18;;;;;;;4.80;1.80;;;;;;;;;;107563;1260;892307;-33
2023/07/25 14:16:51;;;;;;;3.70;1.70;;;;;;;;;;108225;1266;39139;-33
2023/07/25 14:19:28;;;;;;;3.70;1.80;;;;;;;;;;108111;1272;40301;-33
2023/07/25 14:22:05;;;;;;;3.30;1.70;;;;;;;;;;108173;1257;47748;-33
2023/07/25 14:24:39;;;;;;;3.90;1.60;;;;;;;;;;108214;1261;42971;-34
2023/07/25 14:27:12;;;;;;;4.00;1.80;;;;;;;;;;108110;1270;38869;-34
2023/07/25 14:29:46;;;;;;;3.70;1.90;;;;;;;;;;108215;1266;40414;-36
2023/07/25 14:32:19;;;;;;;3.50;1.90;;;;;;;;;;108091;1257;175314;-34
2023/07/25 14:34:55;;;;;;;4.10;2.00;;;;;;;;;;108218;1257;43015;-33
2023/07/25 14:37:30;;;;;;;3.70;1.90;;;;;;;;;;108068;1258;39354;-36
2023/07/25 14:40:23;;;;;;;5.90;2.70;;;;;;;;;;108225;1257;40629;-32
2023/07/25 14:42:57;;;;;;;6.20;2.70;;;;;;;;;;108250;1271;195646;-33
2023/07/25 14:45:31;;;;;;;9.10;3.90;;;;;;;;;;108123;1261;41587;-32
2023/07/25 14:48:05;;;;;;;8.40;5.00;;;;;;;;;;108325;1256;40294;-31
2023/07/25 14:50:39;;;;;;;9.70;4.50;;;;;;;;;;108291;1257;40480;-32
2023/07/25 14:53:13;;;;;;;9.90;5.50;;;;;;;;;;108254;1257;43576;-32
2023/07/25 14:55:47;;;;;;;12.60;5.60;;;;;;;;;;107629;1257;890783;-32
2023/07/25 14:58:20;;;;;;;8.90;5.00;;;;;;;;;;108247;1261;40480;-32
2023/07/25 15:00:54;;;;;;;9.70;4.60;;;;;;;;;;108209;1256;41886;-32
2023/07/25 15:03:28;;;;;;;9.80;6.20;;;;;;;;;;108049;1269;175320;-36
2023/07/25 15:06:02;;;;;;;11.40;7.80;;;;;;;;;;108301;1272;43074;-35
2023/07/25 15:08:35;;;;;;;7.50;4.50;;;;;;;;;;108332;1269;38831;-33
2023/07/25 15:11:10;;;;;;;7.80;4.40;;;;;;;;;;108090;1257;175285;-34
2023/07/25 15:13:43;;;;;;;6.20;3.30;;;;;;;;;;108276;1260;43564;-33
2023/07/25 15:16:17;;;;;;;6.00;3.70;;;;;;;;;;108286;1266;41319;-34
2023/07/25 15:18:51;;;;;;;7.70;5.30;;;;;;;;;;108272;1261;38631;-34